createdAt,value
2018-08-30T00:00:05.222Z,21.40
2018-08-30T00:02:35.091Z,22.00
2018-08-30T00:05:06.256Z,21.30
2018-08-30T00:07:39.486Z,23.43
2018-08-30T00:10:14.541Z,21.17
2018-08-30T00:12:57.349Z,21.30
2018-08-30T00:15:27.147Z,23.83
2018-08-30T00:17:55.854Z,25.90
2018-08-30T00:23:28.256Z,25.80
2018-08-30T00:26:01.756Z,26.87
2018-08-30T00:28:36.576Z,25.83
2018-08-30T00:33:59.784Z,25.65
2018-08-30T00:36:31.345Z,25.50
2018-08-30T00:39:03.416Z,28.03
2018-08-30T00:41:46.413Z,28.37
2018-08-30T00:44:22.658Z,26.50
2018-08-30T00:46:59.940Z,28.57
2018-08-30T00:49:32.997Z,26.77
2018-08-30T00:52:12.553Z,27.47
2018-08-30T00:54:48.619Z,26.80
2018-08-30T00:57:33.212Z,27.93
2018-08-30T01:00:20.519Z,27.70
2018-08-30T01:03:03.349Z,27.07
2018-08-30T01:05:38.957Z,27.10
2018-08-30T01:08:11.809Z,27.97
2018-08-30T01:10:42.388Z,27.62
2018-08-30T01:13:19.140Z,27.67
2018-08-30T01:16:02.690Z,27.70
2018-08-30T01:18:49.395Z,27.23
2018-08-30T01:24:02.095Z,28.17
2018-08-30T01:26:35.395Z,27.13
2018-08-30T01:29:09.043Z,29.90
2018-08-30T01:31:45.886Z,28.53
2018-08-30T01:37:07.099Z,26.73
2018-08-30T01:40:00.112Z,28.10
2018-08-30T01:42:40.269Z,27.80
2018-08-30T01:45:22.155Z,30.10
2018-08-30T01:51:03.847Z,29.57
2018-08-30T01:53:41.168Z,27.73
2018-08-30T01:56:14.429Z,30.90
2018-08-30T02:02:05.584Z,32.53
2018-08-30T02:04:43.427Z,31.93
2018-08-30T02:07:20.241Z,30.95
2018-08-30T02:09:59.403Z,30.07
2018-08-30T02:12:35.990Z,30.70
2018-08-30T02:18:10.667Z,30.32
2018-08-30T02:21:00.266Z,30.83
2018-08-30T02:26:49.549Z,29.00
2018-08-30T02:29:21.638Z,30.20
2018-08-30T02:31:53.774Z,29.18
2018-08-30T02:37:49.058Z,30.00
2018-08-30T02:40:37.807Z,30.03
2018-08-30T02:46:39.409Z,31.00
2018-08-30T02:52:09.534Z,31.48
2018-08-30T02:58:53.029Z,29.90
2018-08-30T03:04:35.146Z,30.50
2018-08-30T03:07:20.147Z,33.60
2018-08-30T03:09:54.930Z,33.47
2018-08-30T03:15:22.150Z,33.33
2018-08-30T03:18:11.200Z,31.68
2018-08-30T03:20:58.604Z,33.33
2018-08-30T03:26:27.832Z,33.23
2018-08-30T03:32:34.730Z,30.60
2018-08-30T03:35:15.109Z,32.20
2018-08-30T03:38:03.100Z,35.03
2018-08-30T03:44:03.306Z,32.10
2018-08-30T03:46:52.671Z,31.70
2018-08-30T03:49:33.781Z,30.90
2018-08-30T03:52:14.572Z,34.58
2018-08-30T03:54:53.372Z,36.30
2018-08-30T03:57:31.168Z,36.35
2018-08-30T04:00:33.870Z,36.00
2018-08-30T04:03:17.788Z,35.60
2018-08-30T04:05:55.424Z,33.83
2018-08-30T04:11:17.925Z,33.88
2018-08-30T04:20:25.747Z,31.23
2018-08-30T04:26:52.729Z,34.35
2018-08-30T04:32:43.431Z,32.95
2018-08-30T04:35:29.005Z,33.67
2018-08-30T04:41:05.599Z,33.02
2018-08-30T04:56:00.607Z,35.23
2018-08-30T04:58:30.261Z,31.00
2018-08-30T05:00:59.241Z,35.28
2018-08-30T05:03:29.468Z,39.30
2018-08-30T05:05:58.631Z,31.48
2018-08-30T05:08:27.741Z,30.62
2018-08-30T05:10:56.799Z,31.95
2018-08-30T05:13:25.798Z,31.93
2018-08-30T05:15:55.272Z,32.60
2018-08-30T05:18:23.948Z,30.77
2018-08-30T05:20:52.673Z,259.67
2018-08-30T05:23:21.564Z,34.38
2018-08-30T05:25:50.360Z,29.40
2018-08-30T05:28:19.158Z,28.07
2018-08-30T05:30:47.996Z,31.07
2018-08-30T05:33:17.282Z,29.95
2018-08-30T05:35:46.748Z,32.40
2018-08-30T05:38:15.324Z,30.92
2018-08-30T05:40:44.454Z,30.30
2018-08-30T05:43:13.194Z,29.77
2018-08-30T05:45:42.624Z,29.18
2018-08-30T05:48:11.408Z,29.12
2018-08-30T05:50:40.720Z,28.30
2018-08-30T05:53:09.614Z,28.50
2018-08-30T05:55:38.273Z,29.82
2018-08-30T05:58:06.952Z,27.95
2018-08-30T06:00:35.617Z,27.15
2018-08-30T06:03:04.924Z,27.95
2018-08-30T06:05:33.532Z,26.57
2018-08-30T06:08:02.317Z,25.88
2018-08-30T06:10:31.770Z,23.32
2018-08-30T06:13:00.639Z,24.43
2018-08-30T06:15:29.424Z,26.07
2018-08-30T06:17:58.211Z,24.57
2018-08-30T06:20:26.876Z,22.58
2018-08-30T06:22:56.482Z,23.02
2018-08-30T06:25:25.501Z,21.77
2018-08-30T06:27:54.576Z,20.45
2018-08-30T06:30:23.251Z,21.13
2018-08-30T06:32:52.325Z,20.37
2018-08-30T06:35:21.055Z,19.43
2018-08-30T06:37:50.123Z,19.50
2018-08-30T06:40:19.324Z,19.57
2018-08-30T06:42:47.822Z,17.50
2018-08-30T06:45:16.954Z,17.23
2018-08-30T06:47:45.898Z,15.15
2018-08-30T06:50:14.479Z,15.73
2018-08-30T06:52:43.143Z,14.45
2018-08-30T06:55:12.829Z,13.70
2018-08-30T06:57:42.162Z,13.15
2018-08-30T07:00:11.172Z,13.18
2018-08-30T07:02:39.908Z,12.35
2018-08-30T07:05:08.583Z,12.78
2018-08-30T07:07:37.358Z,12.70
2018-08-30T07:14:59.783Z,10.53
2018-08-30T07:17:28.753Z,11.68
2018-08-30T07:19:57.680Z,9.85
2018-08-30T07:22:26.919Z,10.70
2018-08-30T07:24:55.702Z,11.55
2018-08-30T07:27:24.997Z,10.18
2018-08-30T07:29:54.649Z,10.70
2018-08-30T07:32:23.471Z,9.90
2018-08-30T07:34:52.476Z,9.25
2018-08-30T07:37:21.060Z,9.23
2018-08-30T07:39:49.795Z,9.58
2018-08-30T07:42:18.446Z,9.30
2018-08-30T07:44:47.304Z,8.78
2018-08-30T07:47:16.534Z,8.55
2018-08-30T07:49:45.097Z,8.33
2018-08-30T07:52:14.622Z,7.80
2018-08-30T07:54:43.258Z,7.37
2018-08-30T07:57:11.782Z,6.80
2018-08-30T07:59:41.266Z,6.90
2018-08-30T08:02:10.863Z,7.58
2018-08-30T08:04:39.429Z,6.40
2018-08-30T08:07:08.809Z,6.30
2018-08-30T08:09:37.536Z,5.97
2018-08-30T08:12:06.439Z,5.83
2018-08-30T08:14:35.403Z,5.45
2018-08-30T08:17:05.150Z,5.95
2018-08-30T08:19:35.613Z,5.30
2018-08-30T08:22:04.323Z,5.85
2018-08-30T08:24:32.944Z,5.75
2018-08-30T08:27:02.167Z,4.37
2018-08-30T08:29:31.311Z,4.87
2018-08-30T08:32:00.229Z,4.62
2018-08-30T08:34:28.908Z,4.80
2018-08-30T08:36:57.767Z,4.62
2018-08-30T08:39:27.184Z,4.90
2018-08-30T08:41:56.033Z,4.33
2018-08-30T08:44:24.950Z,4.25
2018-08-30T08:46:53.633Z,5.37
2018-08-30T08:49:22.538Z,4.62
2018-08-30T08:51:51.447Z,4.45
2018-08-30T08:54:20.380Z,4.70
2018-08-30T08:56:49.235Z,5.97
2018-08-30T08:59:17.985Z,3.05
2018-08-30T09:01:46.497Z,2.55
2018-08-30T09:04:15.291Z,2.80
2018-08-30T09:06:44.328Z,3.45
2018-08-30T09:09:13.484Z,3.00
2018-08-30T09:11:42.956Z,2.80
2018-08-30T09:14:12.050Z,2.58
2018-08-30T09:16:41.365Z,2.33
2018-08-30T09:19:13.145Z,2.37
2018-08-30T09:21:41.807Z,2.27
2018-08-30T09:24:11.378Z,2.10
2018-08-30T09:26:40.188Z,2.72
2018-08-30T09:29:09.145Z,3.05
2018-08-30T09:31:38.811Z,2.10
2018-08-30T09:34:07.404Z,2.10
2018-08-30T09:36:36.182Z,1.87
2018-08-30T09:39:06.942Z,1.80
2018-08-30T09:41:35.942Z,2.10
2018-08-30T09:44:05.576Z,1.98
2018-08-30T09:46:34.302Z,2.02
2018-08-30T09:49:03.552Z,2.33
2018-08-30T09:51:35.028Z,2.10
2018-08-30T09:54:04.512Z,2.52
2018-08-30T09:56:33.721Z,1.75
2018-08-30T09:59:02.655Z,1.98
2018-08-30T10:01:36.417Z,2.50
2018-08-30T10:04:05.165Z,1.92
2018-08-30T10:06:33.977Z,1.80
2018-08-30T10:09:02.848Z,1.98
2018-08-30T10:11:31.509Z,1.90
2018-08-30T10:14:00.670Z,1.70
2018-08-30T10:16:29.464Z,1.85
2018-08-30T10:18:58.418Z,1.77
2018-08-30T10:21:26.984Z,1.80
2018-08-30T10:23:56.158Z,1.47
2018-08-30T10:26:25.596Z,1.75
2018-08-30T10:28:54.214Z,1.82
2018-08-30T10:31:23.063Z,1.60
2018-08-30T10:33:51.950Z,1.40
2018-08-30T10:36:20.892Z,1.65
2018-08-30T10:38:50.483Z,1.42
2018-08-30T10:41:19.278Z,1.62
2018-08-30T10:43:48.838Z,1.72
2018-08-30T10:46:17.593Z,1.37
2018-08-30T10:48:46.388Z,1.87
2018-08-30T10:51:15.001Z,1.52
2018-08-30T10:53:44.005Z,1.75
2018-08-30T10:56:15.443Z,1.50
2018-08-30T10:58:44.048Z,1.65
2018-08-30T11:01:12.693Z,1.87
2018-08-30T11:03:41.370Z,1.70
2018-08-30T11:06:10.300Z,1.70
2018-08-30T11:08:40.134Z,1.45
2018-08-30T11:11:08.961Z,1.40
2018-08-30T11:13:37.744Z,1.70
2018-08-30T11:16:06.418Z,1.55
2018-08-30T11:18:35.100Z,1.40
2018-08-30T11:21:04.108Z,1.52
2018-08-30T11:23:33.449Z,0.90
2018-08-30T11:26:02.631Z,1.40
2018-08-30T11:28:31.638Z,1.62
2018-08-30T11:31:00.621Z,1.47
2018-08-30T11:33:29.690Z,1.22
2018-08-30T11:35:58.327Z,1.40
2018-08-30T11:38:28.124Z,1.50
2018-08-30T11:40:56.836Z,1.52
2018-08-30T11:43:25.665Z,1.50
2018-08-30T11:46:00.933Z,2.15
2018-08-30T11:48:29.780Z,1.60
2018-08-30T11:50:58.757Z,2.00
2018-08-30T11:53:27.457Z,1.82
2018-08-30T11:55:56.136Z,1.55
2018-08-30T11:58:25.197Z,1.67
2018-08-30T12:00:53.851Z,1.40
2018-08-30T12:03:24.597Z,1.30
2018-08-30T12:05:53.892Z,1.47
2018-08-30T12:08:22.783Z,1.57
2018-08-30T12:10:52.403Z,1.85
2018-08-30T12:13:20.995Z,1.20
2018-08-30T12:15:50.088Z,1.65
2018-08-30T12:18:18.905Z,1.50
2018-08-30T12:20:47.628Z,1.35
2018-08-30T12:23:16.217Z,1.80
2018-08-30T12:25:44.828Z,2.10
2018-08-30T12:28:13.709Z,1.92
2018-08-30T12:30:42.366Z,1.80
2018-08-30T12:33:11.200Z,1.70
2018-08-30T12:35:40.464Z,2.00
2018-08-30T12:38:09.233Z,1.45
2018-08-30T12:40:37.966Z,1.55
2018-08-30T12:43:07.728Z,1.65
2018-08-30T12:45:36.480Z,1.45
2018-08-30T12:48:05.694Z,1.50
2018-08-30T12:50:34.295Z,1.30
2018-08-30T12:53:03.115Z,1.47
2018-08-30T12:55:31.989Z,1.60
2018-08-30T12:58:01.620Z,1.50
2018-08-30T13:00:30.456Z,1.60
2018-08-30T13:02:59.139Z,1.50
2018-08-30T13:05:28.459Z,1.65
2018-08-30T13:07:57.163Z,1.80
2018-08-30T13:10:25.769Z,1.70
2018-08-30T13:12:55.066Z,1.80
2018-08-30T13:15:23.960Z,2.20
2018-08-30T13:17:52.504Z,2.10
2018-08-30T13:20:22.159Z,1.50
2018-08-30T13:22:51.365Z,1.65
2018-08-30T13:25:20.168Z,1.57
2018-08-30T13:27:49.151Z,1.82
2018-08-30T13:30:18.480Z,1.73
2018-08-30T13:32:47.094Z,1.12
2018-08-30T13:35:15.972Z,1.17
2018-08-30T13:37:45.034Z,1.72
2018-08-30T13:40:13.919Z,2.70
2018-08-30T13:42:42.817Z,1.57
2018-08-30T13:45:11.930Z,1.47
2018-08-30T13:47:40.374Z,1.70
2018-08-30T13:50:09.916Z,1.47
2018-08-30T13:52:38.368Z,1.12
2018-08-30T13:55:07.715Z,1.07
2018-08-30T13:57:37.251Z,1.60
2018-08-30T14:00:06.166Z,1.27
2018-08-30T14:02:34.792Z,1.37
2018-08-30T14:05:03.869Z,1.50
2018-08-30T14:07:32.804Z,1.47
2018-08-30T14:10:02.145Z,1.32
2018-08-30T14:12:30.499Z,1.52
2018-08-30T14:14:59.633Z,1.30
2018-08-30T14:17:28.801Z,1.25
2018-08-30T14:19:57.882Z,1.20
2018-08-30T14:22:26.418Z,2.02
2018-08-30T14:24:55.090Z,1.50
2018-08-30T14:27:24.036Z,1.30
2018-08-30T14:29:52.680Z,1.40
2018-08-30T14:32:21.503Z,1.35
2018-08-30T14:34:50.428Z,1.20
2018-08-30T14:37:19.147Z,1.35
2018-08-30T14:39:49.013Z,1.30
2018-08-30T14:42:17.921Z,1.30
2018-08-30T14:44:46.558Z,1.10
2018-08-30T14:47:15.452Z,1.05
2018-08-30T14:49:43.912Z,1.27
2018-08-30T14:52:13.549Z,1.47
2018-08-30T14:54:42.570Z,1.10
2018-08-30T14:57:11.981Z,1.40
2018-08-30T14:59:41.125Z,1.45
2018-08-30T15:02:10.901Z,1.77
2018-08-30T15:04:40.185Z,1.32
2018-08-30T15:07:08.977Z,1.47
2018-08-30T15:09:37.861Z,1.55
2018-08-30T15:12:06.770Z,2.25
2018-08-30T15:14:35.613Z,1.47
2018-08-30T15:17:04.446Z,5.75
2018-08-30T15:19:32.866Z,1.90
2018-08-30T15:22:01.432Z,2.42
2018-08-30T15:24:30.985Z,1.70
2018-08-30T15:26:59.748Z,1.80
2018-08-30T15:29:29.493Z,1.90
2018-08-30T15:31:59.004Z,1.67
2018-08-30T15:34:28.131Z,1.80
2018-08-30T15:36:57.912Z,2.12
2018-08-30T15:39:26.683Z,2.00
2018-08-30T15:41:55.504Z,1.90
2018-08-30T15:44:24.240Z,1.77
2018-08-30T15:46:53.032Z,1.97
2018-08-30T15:49:28.268Z,2.00
2018-08-30T15:51:56.955Z,2.10
2018-08-30T15:54:25.910Z,2.12
2018-08-30T15:56:54.665Z,2.02
2018-08-30T15:59:23.362Z,2.12
2018-08-30T16:01:52.032Z,1.95
2018-08-30T16:04:20.747Z,1.90
2018-08-30T16:06:49.713Z,1.98
2018-08-30T16:09:18.901Z,2.17
2018-08-30T16:11:48.527Z,1.80
2018-08-30T16:14:17.423Z,1.50
2018-08-30T16:16:46.072Z,1.92
2018-08-30T16:19:15.067Z,2.10
2018-08-30T16:21:44.657Z,1.80
2018-08-30T16:24:14.091Z,2.22
2018-08-30T16:26:43.678Z,2.22
2018-08-30T16:29:12.660Z,1.82
2018-08-30T16:31:41.573Z,1.80
2018-08-30T16:34:10.321Z,1.70
2018-08-30T16:36:39.099Z,1.95
2018-08-30T16:39:10.146Z,1.72
2018-08-30T16:41:38.940Z,1.75
2018-08-30T16:44:08.533Z,2.87
2018-08-30T16:46:37.200Z,2.17
2018-08-30T16:49:06.486Z,2.10
2018-08-30T16:51:35.254Z,2.30
2018-08-30T16:54:04.963Z,2.10
2018-08-30T16:56:33.523Z,2.10
2018-08-30T16:59:03.239Z,1.65
2018-08-30T17:01:31.721Z,1.47
2018-08-30T17:04:01.038Z,1.70
2018-08-30T17:06:30.860Z,1.37
2018-08-30T17:09:06.545Z,1.50
2018-08-30T17:11:35.327Z,1.95
2018-08-30T17:14:04.949Z,1.82
2018-08-30T17:16:33.849Z,2.47
2018-08-30T17:19:12.825Z,1.25
2018-08-30T17:21:41.352Z,1.85
2018-08-30T17:24:10.461Z,1.20
2018-08-30T17:26:39.309Z,1.55
2018-08-30T17:29:08.064Z,1.87
2018-08-30T17:31:36.701Z,1.90
2018-08-30T17:34:06.161Z,1.98
2018-08-30T17:36:34.827Z,1.37
2018-08-30T17:39:04.984Z,1.47
2018-08-30T17:41:33.781Z,1.75
2018-08-30T17:44:02.490Z,1.77
2018-08-30T17:46:31.290Z,1.70
2018-08-30T17:48:59.873Z,1.57
2018-08-30T17:51:28.806Z,1.80
2018-08-30T17:53:57.646Z,2.47
2018-08-30T17:56:26.452Z,1.67
2018-08-30T17:58:55.920Z,1.98
2018-08-30T18:01:24.754Z,1.75
2018-08-30T18:03:53.177Z,1.80
2018-08-30T18:06:21.888Z,1.87
2018-08-30T18:08:50.990Z,1.87
2018-08-30T18:11:19.639Z,1.60
2018-08-30T18:13:48.206Z,2.08
2018-08-30T18:16:16.833Z,1.50
2018-08-30T18:18:46.563Z,3.62
2018-08-30T18:21:15.390Z,2.47
2018-08-30T18:23:44.383Z,2.00
2018-08-30T18:26:12.967Z,1.65
2018-08-30T18:28:41.677Z,1.87
2018-08-30T18:31:11.168Z,1.72
2018-08-30T18:33:39.985Z,1.80
2018-08-30T18:36:09.393Z,1.95
2018-08-30T18:38:38.852Z,2.08
2018-08-30T18:41:07.545Z,1.50
2018-08-30T18:43:37.042Z,1.70
2018-08-30T18:46:06.004Z,1.80
2018-08-30T18:48:34.916Z,1.50
2018-08-30T18:51:03.609Z,1.67
2018-08-30T18:53:32.251Z,1.90
2018-08-30T18:56:00.901Z,2.35
2018-08-30T18:58:30.175Z,2.40
2018-08-30T19:00:58.954Z,2.15
2018-08-30T19:03:27.506Z,1.90
2018-08-30T19:05:56.409Z,1.95
2018-08-30T19:08:25.695Z,1.70
2018-08-30T19:10:54.786Z,1.52
2018-08-30T19:13:25.488Z,1.55
2018-08-30T19:16:00.391Z,2.00
2018-08-30T19:18:34.655Z,2.22
2018-08-30T19:21:03.949Z,2.10
2018-08-30T19:23:33.374Z,2.08
2018-08-30T19:26:03.184Z,1.60
2018-08-30T19:28:32.927Z,1.57
2018-08-30T19:31:02.149Z,1.80
2018-08-30T19:33:31.227Z,1.85
2018-08-30T19:36:05.278Z,2.70
2018-08-30T19:38:34.241Z,2.10
2018-08-30T19:41:08.642Z,2.52
2018-08-30T19:43:37.502Z,1.82
2018-08-30T19:46:06.796Z,2.25
2018-08-30T19:48:35.853Z,1.80
2018-08-30T19:51:11.495Z,1.92
2018-08-30T19:53:40.733Z,1.67
2018-08-30T19:56:10.031Z,2.02
2018-08-30T19:58:39.251Z,1.77
2018-08-30T20:01:08.686Z,1.85
2018-08-30T20:03:37.799Z,2.37
2018-08-30T20:06:07.337Z,1.95
2018-08-30T20:08:36.202Z,2.15
2018-08-30T20:11:04.955Z,2.40
2018-08-30T20:13:34.653Z,1.90
2018-08-30T20:16:03.937Z,3.05
2018-08-30T20:18:33.393Z,2.45
2018-08-30T20:21:03.030Z,2.72
2018-08-30T20:23:32.431Z,2.47
2018-08-30T20:26:04.750Z,2.17
2018-08-30T20:31:05.321Z,1.80
2018-08-30T20:33:35.653Z,1.70
2018-08-30T20:36:04.309Z,1.72
2018-08-30T20:38:32.838Z,1.82
2018-08-30T20:41:01.538Z,2.02
2018-08-30T20:43:30.247Z,2.00
2018-08-30T20:45:58.893Z,1.87
2018-08-30T20:48:28.260Z,1.77
2018-08-30T20:50:57.119Z,2.08
2018-08-30T20:53:26.121Z,1.60
2018-08-30T20:55:55.202Z,1.52
2018-08-30T20:58:24.257Z,1.87
2018-08-30T21:00:52.823Z,1.60
2018-08-30T21:03:21.513Z,2.02
2018-08-30T21:05:50.880Z,1.95
2018-08-30T21:08:19.400Z,1.67
2018-08-30T21:10:48.605Z,2.15
2018-08-30T21:13:17.292Z,2.08
2018-08-30T21:15:46.049Z,1.98
2018-08-30T21:18:14.878Z,1.90
2018-08-30T21:20:44.221Z,1.87
2018-08-30T21:23:12.908Z,1.70
2018-08-30T21:25:41.505Z,1.95
2018-08-30T21:28:10.079Z,1.60
2018-08-30T21:30:39.001Z,2.12
2018-08-30T21:33:07.848Z,2.00
2018-08-30T21:35:36.367Z,1.60
2018-08-30T21:38:05.290Z,1.65
2018-08-30T21:40:33.778Z,1.70
2018-08-30T21:43:02.504Z,1.70
2018-08-30T21:45:31.090Z,2.02
2018-08-30T21:47:59.668Z,2.00
2018-08-30T21:50:29.556Z,1.60
2018-08-30T21:52:58.404Z,1.50
2018-08-30T21:55:27.224Z,1.82
2018-08-30T21:57:55.750Z,1.83
2018-08-30T22:00:24.309Z,1.70
2018-08-30T22:02:52.865Z,1.90
2018-08-30T22:05:21.414Z,1.57
2018-08-30T22:07:49.988Z,1.65
2018-08-30T22:10:18.623Z,1.70
2018-08-30T22:12:47.208Z,1.45
2018-08-30T22:15:16.298Z,1.67
2018-08-30T22:17:44.914Z,2.20
2018-08-30T22:20:13.481Z,1.80
2018-08-30T22:22:42.401Z,1.65
2018-08-30T22:25:10.861Z,1.65
2018-08-30T22:27:39.395Z,2.15
2018-08-30T22:30:09.582Z,2.02
2018-08-30T22:32:38.873Z,2.00
2018-08-30T22:35:07.791Z,1.50
2018-08-30T22:37:36.732Z,1.45
2018-08-30T22:40:06.088Z,1.85
2018-08-30T22:42:34.536Z,2.00
2018-08-30T22:45:03.787Z,1.85
2018-08-30T22:47:32.736Z,1.70
2018-08-30T22:50:03.461Z,1.57
2018-08-30T22:52:31.948Z,1.80
2018-08-30T22:55:00.825Z,1.70
2018-08-30T22:57:29.774Z,1.85
2018-08-30T22:59:58.569Z,1.43
2018-08-30T23:02:27.509Z,1.67
2018-08-30T23:04:56.376Z,1.77
2018-08-30T23:07:25.184Z,1.63
2018-08-30T23:09:53.788Z,1.98
2018-08-30T23:12:22.421Z,1.63
2018-08-30T23:14:53.330Z,1.50
2018-08-30T23:17:22.554Z,1.50
2018-08-30T23:19:51.101Z,1.80
2018-08-30T23:22:20.323Z,1.92
2018-08-30T23:24:49.111Z,2.07
2018-08-30T23:27:18.670Z,1.95
2018-08-30T23:29:47.257Z,1.83
2018-08-30T23:32:15.869Z,1.70
2018-08-30T23:34:44.472Z,1.50
2018-08-30T23:37:13.082Z,1.72
2018-08-30T23:39:41.633Z,1.80
2018-08-30T23:42:11.257Z,1.70
2018-08-30T23:44:39.901Z,1.77
2018-08-30T23:47:08.484Z,1.90
2018-08-30T23:49:36.925Z,2.20
2018-08-30T23:52:05.645Z,1.60
2018-08-30T23:54:34.836Z,2.10
2018-08-30T23:57:03.363Z,2.23
2018-08-30T23:59:42.907Z,1.83
